createdAt,value
2017-08-05T00:00:48.555Z,63.28
2017-08-05T00:01:48.196Z,62.87
2017-08-05T00:02:48.172Z,62.71
2017-08-05T00:03:48.176Z,62.96
2017-08-05T00:04:48.157Z,62.48
2017-08-05T00:05:48.150Z,63.18
2017-08-05T00:06:48.174Z,62.51
2017-08-05T00:07:48.134Z,63.18
2017-08-05T00:08:48.128Z,62.90
2017-08-05T00:09:48.123Z,63.28
2017-08-05T00:10:48.121Z,63.09
2017-08-05T00:11:48.527Z,63.25
2017-08-05T00:12:48.109Z,63.09
2017-08-05T00:13:48.094Z,63.09
2017-08-05T00:14:48.988Z,62.96
2017-08-05T00:15:48.083Z,63.15
2017-08-05T00:16:48.078Z,62.87
2017-08-05T00:17:48.100Z,62.87
2017-08-05T00:18:48.061Z,63.06
2017-08-05T00:19:48.049Z,63.54
2017-08-05T00:20:48.049Z,63.25
2017-08-05T00:21:48.359Z,63.45
2017-08-05T00:22:48.032Z,63.35
2017-08-05T00:23:48.025Z,63.25
2017-08-05T00:24:48.005Z,63.15
2017-08-05T00:25:48.000Z,63.64
2017-08-05T00:26:48.012Z,63.64
2017-08-05T00:27:48.368Z,63.06
2017-08-05T00:28:47.988Z,63.54
2017-08-05T00:29:47.984Z,63.73
2017-08-05T00:30:47.973Z,63.35
2017-08-05T00:31:47.971Z,63.15
2017-08-05T00:32:47.971Z,63.15
2017-08-05T00:33:47.975Z,63.45
2017-08-05T00:34:47.946Z,63.15
2017-08-05T00:35:47.926Z,63.06
2017-08-05T00:36:48.257Z,63.64
2017-08-05T00:37:47.913Z,63.06
2017-08-05T00:38:47.910Z,63.06
2017-08-05T00:39:47.910Z,63.06
2017-08-05T00:40:47.891Z,63.15
2017-08-05T00:41:47.889Z,62.87
2017-08-05T00:42:48.315Z,63.54
2017-08-05T00:43:47.889Z,63.06
2017-08-05T00:44:47.861Z,63.64
2017-08-05T00:45:47.870Z,63.22
2017-08-05T00:46:47.859Z,62.96
2017-08-05T00:47:47.851Z,62.87
2017-08-05T00:48:48.293Z,63.02
2017-08-05T00:49:47.842Z,63.22
2017-08-05T00:50:47.839Z,63.32
2017-08-05T00:51:47.810Z,63.83
2017-08-05T00:52:47.805Z,63.70
2017-08-05T00:53:47.808Z,64.02
2017-08-05T00:54:48.021Z,64.02
2017-08-05T00:55:47.780Z,64.09
2017-08-05T00:56:47.774Z,63.83
2017-08-05T00:57:47.778Z,63.83
2017-08-05T00:58:47.769Z,63.64
2017-08-05T00:59:47.756Z,63.41
2017-08-05T01:00:48.070Z,63.51
2017-08-05T01:01:47.751Z,63.60
2017-08-05T01:02:47.743Z,63.73
2017-08-05T01:03:47.722Z,63.35
2017-08-05T01:04:47.732Z,63.60
2017-08-05T01:05:47.705Z,63.73
2017-08-05T01:06:48.026Z,63.41
2017-08-05T01:07:47.702Z,63.51
2017-08-05T01:08:47.686Z,63.60
2017-08-05T01:09:47.705Z,63.79
2017-08-05T01:10:47.685Z,63.79
2017-08-05T01:11:47.686Z,64.09
2017-08-05T01:12:48.058Z,63.99
2017-08-05T01:13:47.662Z,64.09
2017-08-05T01:14:47.639Z,64.18
2017-08-05T01:15:47.643Z,63.89
2017-08-05T01:16:47.637Z,63.79
2017-08-05T01:17:47.628Z,63.79
2017-08-05T01:18:47.646Z,64.09
2017-08-05T01:19:47.615Z,63.79
2017-08-05T01:20:47.984Z,63.99
2017-08-05T01:21:47.601Z,64.09
2017-08-05T01:22:47.590Z,64.18
2017-08-05T01:23:47.585Z,64.09
2017-08-05T01:24:47.571Z,63.70
2017-08-05T01:25:47.558Z,64.18
2017-08-05T01:26:47.586Z,64.28
2017-08-05T01:27:47.554Z,64.18
2017-08-05T01:28:47.533Z,64.66
2017-08-05T01:29:47.526Z,64.66
2017-08-05T01:30:47.534Z,64.66
2017-08-05T01:31:47.878Z,64.66
2017-08-05T01:32:47.522Z,64.85
2017-08-05T01:33:47.516Z,64.09
2017-08-05T01:34:47.491Z,63.70
2017-08-05T01:35:47.501Z,63.79
2017-08-05T01:36:47.477Z,63.86
2017-08-05T01:37:47.796Z,63.76
2017-08-05T01:38:47.472Z,63.86
2017-08-05T01:39:47.456Z,64.15
2017-08-05T01:40:47.453Z,64.15
2017-08-05T01:41:47.457Z,64.53
2017-08-05T01:42:47.435Z,64.15
2017-08-05T01:43:47.794Z,63.76
2017-08-05T01:44:47.425Z,63.76
2017-08-05T01:45:47.421Z,63.76
2017-08-05T01:46:47.408Z,63.86
2017-08-05T01:47:47.398Z,63.76
2017-08-05T01:48:47.391Z,63.96
2017-08-05T01:49:47.852Z,63.86
2017-08-05T01:50:47.378Z,64.25
2017-08-05T01:51:47.368Z,64.25
2017-08-05T01:52:47.361Z,63.86
2017-08-05T01:53:47.359Z,64.05
2017-08-05T01:54:47.346Z,63.86
2017-08-05T01:55:47.666Z,64.22
2017-08-05T01:56:47.331Z,64.31
2017-08-05T01:57:47.320Z,64.02
2017-08-05T01:58:47.321Z,64.72
2017-08-05T01:59:47.308Z,64.59
2017-08-05T02:00:47.297Z,64.63
2017-08-05T02:01:47.750Z,64.59
2017-08-05T02:02:47.281Z,64.25
2017-08-05T02:03:47.280Z,64.31
2017-08-05T02:04:47.256Z,64.05
2017-08-05T02:05:47.249Z,64.50
2017-08-05T02:06:47.243Z,64.34
2017-08-05T02:07:47.629Z,64.15
2017-08-05T02:08:47.237Z,64.34
2017-08-05T02:09:47.227Z,64.22
2017-08-05T02:10:47.210Z,64.05
2017-08-05T02:11:47.204Z,64.15
2017-08-05T02:12:47.190Z,64.12
2017-08-05T02:13:47.554Z,63.67
2017-08-05T02:14:47.184Z,64.34
2017-08-05T02:15:47.183Z,64.05
2017-08-05T02:16:47.173Z,64.34
2017-08-05T02:17:47.164Z,64.15
2017-08-05T02:18:47.156Z,64.43
2017-08-05T02:19:47.186Z,64.05
2017-08-05T02:20:47.145Z,64.34
2017-08-05T02:21:47.118Z,64.34
2017-08-05T02:22:47.128Z,64.15
2017-08-05T02:23:47.414Z,64.05
2017-08-05T02:24:47.112Z,64.12
2017-08-05T02:25:47.222Z,64.50
2017-08-05T02:26:47.079Z,64.69
2017-08-05T02:27:47.074Z,64.59
2017-08-05T02:28:47.078Z,64.79
2017-08-05T02:29:47.494Z,64.89
2017-08-05T02:30:47.060Z,64.59
2017-08-05T02:31:47.043Z,64.59
2017-08-05T02:32:47.036Z,64.69
2017-08-05T02:33:47.037Z,64.22
2017-08-05T02:34:47.016Z,64.22
2017-08-05T02:35:47.393Z,64.59
2017-08-05T02:36:47.013Z,64.50
2017-08-05T02:37:46.993Z,64.82
2017-08-05T02:38:46.986Z,64.25
2017-08-05T02:39:46.979Z,64.59
2017-08-05T02:40:46.968Z,64.50
2017-08-05T02:41:47.006Z,64.69
2017-08-05T02:42:46.967Z,64.79
2017-08-05T02:43:47.939Z,64.53
2017-08-05T02:44:46.949Z,64.69
2017-08-05T02:45:46.935Z,64.79
2017-08-05T02:46:46.936Z,64.12
2017-08-05T02:47:46.913Z,64.53
2017-08-05T02:48:46.909Z,64.69
2017-08-05T02:49:47.286Z,64.31
2017-08-05T02:50:46.902Z,64.02
2017-08-05T02:51:46.889Z,64.40
2017-08-05T02:52:46.885Z,64.79
2017-08-05T02:53:46.874Z,64.69
2017-08-05T02:54:46.869Z,64.79
2017-08-05T02:55:47.302Z,64.72
2017-08-05T02:56:46.851Z,64.59
2017-08-05T02:57:46.846Z,64.72
2017-08-05T02:58:46.835Z,64.79
2017-08-05T02:59:46.841Z,64.79
2017-08-05T03:00:46.808Z,64.79
2017-08-05T03:01:47.168Z,64.82
2017-08-05T03:02:46.797Z,64.82
2017-08-05T03:03:46.799Z,65.20
2017-08-05T03:04:46.793Z,65.11
2017-08-05T03:05:46.796Z,65.01
2017-08-05T03:06:46.785Z,64.43
2017-08-05T03:07:47.126Z,64.43
2017-08-05T03:08:46.751Z,64.92
2017-08-05T03:09:46.743Z,64.43
2017-08-05T03:10:46.737Z,64.79
2017-08-05T03:11:46.733Z,64.72
2017-08-05T03:12:46.716Z,64.50
2017-08-05T03:13:47.066Z,64.59
2017-08-05T03:14:46.725Z,64.89
2017-08-05T03:15:46.702Z,64.69
2017-08-05T03:16:46.693Z,64.40
2017-08-05T03:17:46.686Z,65.17
2017-08-05T03:18:46.679Z,64.98
2017-08-05T03:19:47.032Z,64.89
2017-08-05T03:20:46.651Z,64.98
2017-08-05T03:21:46.650Z,65.17
2017-08-05T03:22:46.636Z,65.27
2017-08-05T03:23:46.638Z,65.17
2017-08-05T03:24:46.618Z,64.89
2017-08-05T03:25:46.849Z,65.17
2017-08-05T03:26:46.604Z,64.89
2017-08-05T03:27:46.596Z,64.79
2017-08-05T03:28:46.599Z,64.69
2017-08-05T03:29:46.592Z,64.59
2017-08-05T03:30:46.586Z,64.79
2017-08-05T03:31:47.032Z,64.50
2017-08-05T03:32:46.571Z,64.59
2017-08-05T03:33:46.565Z,64.79
2017-08-05T03:34:46.555Z,65.08
2017-08-05T03:35:46.535Z,64.98
2017-08-05T03:36:46.538Z,64.59
2017-08-05T03:37:46.843Z,64.98
2017-08-05T03:38:46.508Z,64.69
2017-08-05T03:39:46.520Z,64.89
2017-08-05T03:40:46.492Z,64.79
2017-08-05T03:41:46.484Z,64.69
2017-08-05T03:42:46.488Z,64.89
2017-08-05T03:43:46.509Z,64.59
2017-08-05T03:44:46.459Z,64.89
2017-08-05T03:45:46.472Z,64.98
2017-08-05T03:46:46.445Z,64.79
2017-08-05T03:47:46.484Z,64.89
2017-08-05T03:48:46.429Z,64.79
2017-08-05T03:49:46.426Z,64.79
2017-08-05T03:50:46.423Z,64.98
2017-08-05T03:51:46.407Z,65.27
2017-08-05T03:52:46.428Z,64.98
2017-08-05T03:53:46.395Z,65.27
2017-08-05T03:54:46.394Z,65.56
2017-08-05T03:55:46.385Z,65.36
2017-08-05T03:56:46.362Z,65.36
2017-08-05T03:57:46.787Z,64.69
2017-08-05T03:58:46.356Z,65.27
2017-08-05T03:59:46.346Z,65.56
2017-08-05T04:00:46.334Z,65.56
2017-08-05T04:01:46.334Z,65.65
2017-08-05T04:02:46.329Z,65.65
2017-08-05T04:03:46.627Z,65.36
2017-08-05T04:04:46.312Z,65.65
2017-08-05T04:05:46.310Z,65.36
2017-08-05T04:06:46.286Z,65.46
2017-08-05T04:07:46.279Z,64.98
2017-08-05T04:08:46.279Z,65.46
2017-08-05T04:09:46.697Z,64.98
2017-08-05T04:10:46.262Z,65.27
2017-08-05T04:11:46.249Z,65.36
2017-08-05T04:12:46.252Z,65.27
2017-08-05T04:13:46.244Z,64.98
2017-08-05T04:14:46.222Z,64.98
2017-08-05T04:15:46.588Z,65.17
2017-08-05T04:16:46.203Z,64.79
2017-08-05T04:17:46.215Z,64.89
2017-08-05T04:18:46.194Z,64.79
2017-08-05T04:19:46.198Z,64.40
2017-08-05T04:20:46.184Z,64.31
2017-08-05T04:21:46.531Z,64.79
2017-08-05T04:22:46.159Z,64.79
2017-08-05T04:23:46.159Z,64.69
2017-08-05T04:24:46.151Z,65.08
2017-08-05T04:25:46.147Z,64.79
2017-08-05T04:26:46.125Z,64.98
2017-08-05T04:27:46.155Z,65.27
2017-08-05T04:28:46.129Z,65.36
2017-08-05T04:29:46.111Z,65.65
2017-08-05T04:30:46.111Z,65.46
2017-08-05T04:31:46.086Z,65.27
2017-08-05T04:32:46.533Z,65.08
2017-08-05T04:33:46.064Z,65.17
2017-08-05T04:34:46.058Z,65.36
2017-08-05T04:35:46.051Z,65.08
2017-08-05T04:36:46.055Z,65.27
2017-08-05T04:37:46.047Z,65.27
2017-08-05T04:38:46.056Z,65.27
2017-08-05T04:39:46.027Z,65.08
2017-08-05T04:40:46.020Z,65.08
2017-08-05T04:41:46.010Z,65.46
2017-08-05T04:42:46.006Z,65.17
2017-08-05T04:43:46.381Z,65.36
2017-08-05T04:44:45.991Z,65.36
2017-08-05T04:45:45.983Z,65.56
2017-08-05T04:46:45.962Z,65.27
2017-08-05T04:47:45.965Z,65.17
2017-08-05T04:48:45.959Z,65.94
2017-08-05T04:49:46.351Z,65.94
2017-08-05T04:50:45.941Z,66.03
2017-08-05T04:51:45.923Z,66.67
2017-08-05T04:52:45.929Z,66.49
2017-08-05T04:53:45.905Z,66.58
2017-08-05T04:54:45.908Z,66.19
2017-08-05T04:55:46.335Z,66.39
2017-08-05T04:56:45.888Z,66.49
2017-08-05T04:57:45.883Z,66.39
2017-08-05T04:58:45.866Z,66.42
2017-08-05T04:59:45.859Z,66.80
2017-08-05T05:00:45.863Z,66.49
2017-08-05T05:01:46.176Z,66.03
2017-08-05T05:02:45.832Z,65.75
2017-08-05T05:03:45.838Z,66.33
2017-08-05T05:04:45.819Z,66.03
2017-08-05T05:05:45.825Z,66.13
2017-08-05T05:06:45.799Z,66.13
2017-08-05T05:07:46.112Z,66.23
2017-08-05T05:08:45.800Z,66.03
2017-08-05T05:09:45.787Z,65.94
2017-08-05T05:10:45.768Z,66.13
2017-08-05T05:11:45.785Z,65.94
2017-08-05T05:12:45.768Z,66.03
2017-08-05T05:13:46.044Z,66.03
2017-08-05T05:14:45.736Z,65.94
2017-08-05T05:15:45.740Z,66.23
2017-08-05T05:16:45.730Z,66.03
2017-08-05T05:17:45.711Z,66.03
2017-08-05T05:18:45.716Z,65.75
2017-08-05T05:19:46.164Z,65.84
2017-08-05T05:20:45.690Z,66.23
2017-08-05T05:21:45.690Z,65.94
2017-08-05T05:22:45.670Z,66.23
2017-08-05T05:23:45.672Z,65.94
2017-08-05T05:24:45.657Z,65.84
2017-08-05T05:25:45.965Z,66.03
2017-08-05T05:26:46.492Z,65.94
2017-08-05T05:27:45.646Z,65.94
2017-08-05T05:28:45.623Z,66.71
2017-08-05T05:29:45.614Z,66.52
2017-08-05T05:30:45.616Z,66.61
2017-08-05T05:31:46.064Z,66.61
2017-08-05T05:32:45.593Z,66.61
2017-08-05T05:33:45.596Z,66.61
2017-08-05T05:34:45.588Z,67.09
2017-08-05T05:35:45.569Z,66.90
2017-08-05T05:36:45.560Z,66.80
2017-08-05T05:37:45.929Z,66.61
2017-08-05T05:38:45.562Z,67.00
2017-08-05T05:39:45.549Z,66.61
2017-08-05T05:40:45.539Z,66.90
2017-08-05T05:41:45.534Z,67.00
2017-08-05T05:42:45.525Z,66.42
2017-08-05T05:43:45.962Z,66.42
2017-08-05T05:44:45.523Z,66.71
2017-08-05T05:45:45.758Z,66.52
2017-08-05T05:46:45.486Z,66.61
2017-08-05T05:47:45.482Z,66.61
2017-08-05T05:48:45.470Z,66.52
2017-08-05T05:49:45.827Z,67.00
2017-08-05T05:50:45.460Z,66.80
2017-08-05T05:51:45.438Z,66.80
2017-08-05T05:52:45.432Z,66.80
2017-08-05T05:53:45.430Z,66.42
2017-08-05T05:54:45.428Z,66.61
2017-08-05T05:55:45.629Z,66.52
2017-08-05T05:56:45.399Z,66.80
2017-08-05T05:57:45.392Z,66.52
2017-08-05T05:58:45.395Z,66.42
2017-08-05T05:59:45.392Z,66.42
2017-08-05T06:00:45.384Z,66.52
2017-08-05T06:01:45.833Z,66.42
2017-08-05T06:02:45.364Z,66.42
2017-08-05T06:03:45.354Z,66.55
2017-08-05T06:04:45.340Z,66.61
2017-08-05T06:05:45.340Z,66.61
2017-08-05T06:06:45.348Z,66.74
2017-08-05T06:07:45.685Z,66.61
2017-08-05T06:08:45.312Z,66.64
2017-08-05T06:09:45.299Z,66.64
2017-08-05T06:10:45.314Z,66.64
2017-08-05T06:11:45.292Z,66.55
2017-08-05T06:12:45.283Z,66.36
2017-08-05T06:13:45.727Z,66.64
2017-08-05T06:14:45.271Z,66.55
2017-08-05T06:15:45.265Z,66.55
2017-08-05T06:16:45.254Z,66.46
2017-08-05T06:17:45.251Z,66.64
2017-08-05T06:18:45.229Z,66.64
2017-08-05T06:19:45.530Z,66.64
2017-08-05T06:20:45.213Z,66.64
2017-08-05T06:21:45.216Z,66.64
2017-08-05T06:22:45.199Z,66.64
2017-08-05T06:23:45.187Z,66.64
2017-08-05T06:24:45.191Z,66.46
2017-08-05T06:25:45.536Z,67.61
2017-08-05T06:26:45.192Z,66.93
2017-08-05T06:27:45.161Z,66.64
2017-08-05T06:28:45.162Z,67.03
2017-08-05T06:29:45.142Z,67.13
2017-08-05T06:30:45.141Z,66.93
2017-08-05T06:31:45.164Z,66.84
2017-08-05T06:32:45.130Z,66.74
2017-08-05T06:33:45.414Z,66.93
2017-08-05T06:34:45.114Z,67.61
2017-08-05T06:35:45.096Z,68.34
2017-08-05T06:36:45.088Z,68.34
2017-08-05T06:37:45.084Z,67.96
2017-08-05T06:38:45.081Z,68.44
2017-08-05T06:39:45.325Z,68.53
2017-08-05T06:40:45.059Z,68.73
2017-08-05T06:41:45.051Z,69.11
2017-08-05T06:42:45.047Z,69.49
2017-08-05T06:43:45.038Z,70.74
2017-08-05T06:44:45.036Z,70.07
2017-08-05T06:45:45.412Z,70.45
2017-08-05T06:46:45.021Z,69.97
2017-08-05T06:47:45.015Z,70.55
2017-08-05T06:48:44.997Z,70.55
2017-08-05T06:49:44.996Z,71.98
2017-08-05T06:50:44.980Z,70.99
2017-08-05T06:51:45.329Z,71.22
2017-08-05T06:52:44.985Z,70.64
2017-08-05T06:53:44.982Z,70.93
2017-08-05T06:54:44.968Z,70.45
2017-08-05T06:55:44.939Z,70.84
2017-08-05T06:56:44.943Z,70.36
2017-08-05T06:57:45.310Z,70.26
2017-08-05T06:58:44.935Z,69.97
2017-08-05T06:59:44.914Z,70.26
2017-08-05T07:00:44.903Z,69.68
2017-08-05T07:01:44.906Z,70.64
2017-08-05T07:02:44.885Z,71.22
2017-08-05T07:03:45.325Z,71.12
2017-08-05T07:04:44.868Z,72.18
2017-08-05T07:05:44.870Z,71.80
2017-08-05T07:06:44.868Z,71.61
2017-08-05T07:07:44.850Z,71.22
2017-08-05T07:08:44.852Z,71.89
2017-08-05T07:09:44.883Z,71.51
2017-08-05T07:10:44.827Z,72.18
2017-08-05T07:11:44.831Z,71.31
2017-08-05T07:12:44.820Z,71.70
2017-08-05T07:13:45.183Z,71.22
2017-08-05T07:14:44.791Z,71.41
2017-08-05T07:15:44.794Z,71.12
2017-08-05T07:16:44.787Z,71.31
2017-08-05T07:17:44.784Z,70.84
2017-08-05T07:18:44.766Z,70.84
2017-08-05T07:19:44.803Z,71.03
2017-08-05T07:20:44.771Z,70.68
2017-08-05T07:21:44.769Z,70.97
2017-08-05T07:22:44.737Z,71.06
2017-08-05T07:23:44.736Z,71.25
2017-08-05T07:24:45.196Z,71.35
2017-08-05T07:25:44.709Z,71.31
2017-08-05T07:26:44.712Z,72.08
2017-08-05T07:27:44.709Z,72.47
2017-08-05T07:28:44.686Z,73.04
2017-08-05T07:29:44.689Z,73.14
2017-08-05T07:30:44.901Z,73.43
2017-08-05T07:31:44.659Z,73.81
2017-08-05T07:32:44.652Z,73.33
2017-08-05T07:33:44.656Z,73.62
2017-08-05T07:34:44.635Z,74.10
2017-08-05T07:35:44.642Z,74.19
2017-08-05T07:36:44.858Z,74.77
2017-08-05T07:37:44.625Z,74.19
2017-08-05T07:38:44.606Z,75.15
2017-08-05T07:39:44.608Z,75.15
2017-08-05T07:40:44.593Z,74.96
2017-08-05T07:41:44.610Z,75.02
2017-08-05T07:42:44.620Z,76.07
2017-08-05T07:43:44.582Z,76.37
2017-08-05T07:44:50.903Z,76.37
2017-08-05T07:45:46.039Z,76.27
2017-08-05T07:46:45.029Z,76.17
2017-08-05T07:47:44.808Z,76.37
2017-08-05T07:48:44.984Z,76.17
2017-08-05T07:49:45.158Z,76.46
2017-08-05T07:50:44.579Z,76.75
2017-08-05T07:51:45.082Z,77.04
2017-08-05T07:52:44.498Z,76.27
2017-08-05T07:53:44.515Z,76.27
2017-08-05T07:54:44.492Z,76.46
2017-08-05T07:55:44.692Z,77.13
2017-08-05T07:56:44.469Z,77.33
2017-08-05T07:57:45.248Z,77.61
2017-08-05T07:58:45.194Z,78.09
2017-08-05T07:59:44.452Z,78.09
2017-08-05T08:00:44.437Z,77.95
2017-08-05T08:01:44.455Z,78.00
2017-08-05T08:02:45.233Z,78.05
2017-08-05T08:03:45.003Z,78.19
2017-08-05T08:04:44.415Z,78.25
2017-08-05T08:05:45.949Z,78.34
2017-08-05T08:06:45.162Z,79.11
2017-08-05T08:07:44.380Z,79.21
2017-08-05T08:08:44.389Z,79.59
2017-08-05T08:09:44.365Z,79.49
2017-08-05T08:10:44.356Z,79.68
2017-08-05T08:11:44.578Z,80.45
2017-08-05T08:12:44.349Z,80.16
2017-08-05T08:13:44.334Z,79.88
2017-08-05T08:14:44.340Z,80.45
2017-08-05T08:15:44.319Z,80.45
2017-08-05T08:16:44.307Z,80.74
2017-08-05T08:17:44.332Z,81.22
2017-08-05T08:18:44.303Z,80.64
2017-08-05T08:19:54.045Z,80.74
2017-08-05T08:20:45.507Z,80.35
2017-08-05T08:21:45.705Z,80.45
2017-08-05T08:22:44.330Z,80.45
2017-08-05T08:23:44.323Z,80.07
2017-08-05T08:24:45.144Z,79.44
2017-08-05T08:25:45.075Z,80.49
2017-08-05T08:26:44.230Z,80.45
2017-08-05T08:27:44.963Z,80.74
2017-08-05T08:28:44.228Z,80.64
2017-08-05T08:29:44.237Z,80.64
2017-08-05T08:30:46.150Z,81.12
2017-08-05T08:31:44.262Z,81.12
2017-08-05T08:32:44.230Z,81.12
2017-08-05T08:33:44.402Z,81.79
2017-08-05T08:34:44.477Z,81.79
2017-08-05T08:35:44.391Z,81.79
2017-08-05T08:36:44.894Z,81.70
2017-08-05T08:37:44.462Z,81.98
2017-08-05T08:38:44.658Z,81.70
2017-08-05T08:39:45.583Z,81.60
2017-08-05T08:40:44.388Z,82.46
2017-08-05T08:41:44.132Z,82.85
2017-08-05T08:42:44.111Z,81.79
2017-08-05T08:43:44.906Z,82.46
2017-08-05T08:44:44.364Z,82.08
2017-08-05T08:45:47.505Z,81.79
2017-08-05T08:46:44.858Z,81.98
2017-08-05T08:47:44.497Z,81.89
2017-08-05T08:48:44.225Z,81.98
2017-08-05T08:49:44.297Z,81.89
2017-08-05T08:50:44.332Z,81.60
2017-08-05T08:51:44.510Z,82.12
2017-08-05T08:52:44.863Z,82.18
2017-08-05T08:53:44.702Z,82.08
2017-08-05T08:54:44.008Z,82.65
2017-08-05T08:55:43.997Z,82.70
2017-08-05T08:56:44.001Z,82.08
2017-08-05T08:57:44.379Z,81.93
2017-08-05T08:58:43.989Z,81.84
2017-08-05T08:59:43.996Z,81.54
2017-08-05T09:00:43.966Z,81.26
2017-08-05T09:01:44.751Z,80.68
2017-08-05T09:02:44.569Z,80.68
2017-08-05T09:03:44.557Z,80.78
2017-08-05T09:04:44.674Z,81.26
2017-08-05T09:05:44.981Z,80.87
2017-08-05T09:06:44.630Z,80.49
2017-08-05T09:07:44.569Z,80.20
2017-08-05T09:08:44.598Z,80.40
2017-08-05T09:09:45.069Z,80.30
2017-08-05T09:10:45.106Z,80.11
2017-08-05T09:11:44.676Z,80.78
2017-08-05T09:12:43.874Z,80.78
2017-08-05T09:26:38.140Z,79.19
2017-08-05T09:27:37.467Z,79.28
2017-08-05T09:28:38.046Z,78.90
2017-08-05T09:29:37.224Z,78.61
2017-08-05T09:30:37.216Z,78.70
2017-08-05T09:31:37.209Z,79.38
2017-08-05T09:32:37.508Z,79.82
2017-08-05T09:33:37.188Z,80.11
2017-08-05T09:34:37.183Z,79.44
2017-08-05T09:35:37.160Z,80.49
2017-08-05T09:36:37.151Z,80.01
2017-08-05T09:37:37.161Z,80.30
2017-08-05T09:38:37.575Z,80.30
2017-08-05T09:39:37.142Z,80.30
2017-08-05T09:40:37.150Z,80.68
2017-08-05T09:41:37.129Z,80.01
2017-08-05T09:42:37.116Z,80.11
2017-08-05T09:43:37.110Z,80.01
2017-08-05T09:44:37.471Z,80.40
2017-08-05T09:45:37.080Z,80.49
2017-08-05T09:46:37.072Z,80.40
2017-08-05T09:47:37.093Z,80.73
2017-08-05T09:52:42.251Z,80.15
2017-08-05T09:53:41.869Z,79.47
2017-08-05T09:54:40.991Z,79.57
2017-08-05T09:55:40.981Z,79.47
2017-08-05T09:56:41.610Z,79.96
2017-08-05T09:57:41.230Z,79.76
2017-08-05T09:58:41.237Z,79.38
2017-08-05T09:59:40.957Z,79.86
2017-08-05T10:00:40.936Z,79.47
2017-08-05T10:01:40.937Z,80.15
2017-08-05T10:02:41.755Z,79.76
2017-08-05T10:03:41.416Z,79.38
2017-08-05T10:04:42.463Z,79.47
2017-08-05T10:05:41.699Z,79.67
2017-08-05T10:06:40.892Z,79.67
2017-08-05T10:07:40.892Z,79.67
2017-08-05T10:08:41.648Z,79.80
2017-08-05T10:09:41.194Z,79.61
2017-08-05T10:10:41.524Z,79.13
2017-08-05T10:11:41.345Z,79.32
2017-08-05T10:12:41.382Z,78.84
2017-08-05T10:13:41.541Z,79.22
2017-08-05T10:14:41.400Z,78.75
2017-08-05T10:15:40.985Z,79.42
2017-08-05T10:16:42.387Z,79.76
2017-08-05T10:17:41.446Z,79.67
2017-08-05T10:18:40.831Z,79.47
2017-08-05T10:19:40.790Z,78.32
2017-08-05T10:20:40.800Z,78.32
2017-08-05T10:21:40.780Z,77.94
2017-08-05T10:22:40.814Z,78.32
2017-08-05T10:23:41.207Z,78.23
2017-08-05T10:24:40.757Z,78.03
2017-08-05T10:25:41.512Z,78.13
2017-08-05T10:26:42.228Z,79.47
2017-08-05T10:27:41.155Z,79.38
2017-08-05T10:28:40.825Z,79.28
2017-08-05T10:29:41.104Z,79.28
2017-08-05T10:30:41.327Z,79.19
2017-08-05T10:31:40.730Z,79.38
2017-08-05T10:32:40.902Z,79.28
2017-08-05T10:33:40.817Z,79.38
2017-08-05T10:34:40.834Z,78.99
2017-08-05T10:35:40.936Z,79.19
2017-08-05T10:36:41.024Z,79.09
2017-08-05T10:37:41.406Z,79.09
2017-08-05T10:38:41.457Z,78.99
2017-08-05T10:39:40.741Z,79.19
2017-08-05T10:40:40.723Z,80.15
2017-08-05T10:41:40.773Z,79.86
2017-08-05T10:42:40.814Z,79.28
2017-08-05T10:43:40.829Z,79.28
2017-08-05T10:44:41.142Z,79.38
2017-08-05T10:45:41.370Z,79.28
2017-08-05T10:46:41.044Z,79.28
2017-08-05T10:47:40.746Z,79.38
2017-08-05T10:48:40.791Z,79.86
2017-08-05T10:49:40.853Z,79.67
2017-08-05T10:50:41.637Z,79.19
2017-08-05T10:51:40.832Z,80.05
2017-08-05T10:52:40.951Z,79.76
2017-08-05T10:53:41.345Z,80.34
2017-08-05T10:54:41.316Z,79.67
2017-08-05T10:55:40.856Z,78.90
2017-08-05T10:56:41.302Z,79.38
2017-08-05T10:57:40.949Z,79.38
2017-08-05T10:58:40.561Z,78.99
2017-08-05T10:59:40.643Z,78.32
2017-08-05T11:00:40.642Z,78.70
2017-08-05T11:01:40.494Z,78.80
2017-08-05T11:02:42.115Z,78.80
2017-08-05T11:03:41.283Z,77.46
2017-08-05T11:04:40.630Z,78.23
2017-08-05T11:05:40.942Z,77.84
2017-08-05T11:06:41.245Z,77.56
2017-08-05T11:07:41.158Z,78.32
2017-08-05T11:08:40.597Z,80.15
2017-08-05T11:09:40.475Z,77.84
2017-08-05T11:10:40.485Z,77.17
2017-08-05T11:11:40.501Z,77.94
2017-08-05T11:12:41.073Z,77.75
2017-08-05T11:13:40.392Z,77.94
2017-08-05T11:14:40.372Z,78.42
2017-08-05T11:15:41.181Z,78.42
2017-08-05T11:16:41.164Z,78.80
2017-08-05T11:17:40.461Z,78.99
2017-08-05T11:18:41.548Z,79.19
2017-08-05T11:19:40.855Z,78.80
2017-08-05T11:20:41.122Z,79.47
2017-08-05T11:21:40.900Z,79.19
2017-08-05T11:22:41.054Z,78.99
2017-08-05T11:23:41.339Z,80.19
2017-08-05T11:24:41.002Z,79.61
2017-08-05T11:25:40.685Z,79.22
2017-08-05T11:26:41.042Z,79.52
2017-08-05T11:27:40.996Z,79.03
2017-08-05T11:28:41.100Z,79.22
2017-08-05T11:29:40.752Z,78.84
2017-08-05T11:30:40.280Z,78.65
2017-08-05T11:31:40.322Z,78.65
2017-08-05T11:32:40.378Z,78.75
2017-08-05T11:33:40.981Z,78.65
2017-08-05T11:34:40.529Z,78.84
2017-08-05T11:35:40.593Z,78.75
2017-08-05T11:36:40.220Z,78.27
2017-08-05T11:37:40.218Z,77.88
2017-08-05T11:38:40.202Z,78.55
2017-08-05T11:39:40.202Z,78.45
2017-08-05T11:40:40.318Z,78.11
2017-08-05T11:41:41.790Z,78.11
2017-08-05T11:42:40.974Z,77.92
2017-08-05T11:43:40.244Z,78.02
2017-08-05T11:44:40.578Z,77.92
2017-08-05T11:45:40.552Z,77.34
2017-08-05T11:46:40.958Z,77.15
2017-08-05T11:47:40.636Z,77.15
2017-08-05T11:48:40.127Z,77.06
2017-08-05T11:49:40.119Z,76.57
2017-08-05T11:50:40.106Z,76.86
2017-08-05T11:51:40.102Z,76.09
2017-08-05T11:52:40.108Z,75.87
2017-08-05T11:53:40.546Z,77.98
2017-08-05T11:54:40.095Z,78.17
2017-08-05T11:55:40.088Z,78.08
2017-08-05T11:56:40.878Z,78.27
2017-08-05T11:57:40.484Z,78.45
2017-08-05T11:58:40.052Z,78.17
2017-08-05T11:59:40.497Z,78.59
2017-08-05T12:00:40.039Z,77.11
2017-08-05T12:01:40.090Z,77.78
2017-08-05T12:02:40.041Z,77.78
2017-08-05T12:03:40.026Z,77.21
2017-08-05T12:04:40.769Z,77.88
2017-08-05T12:05:40.442Z,77.59
2017-08-05T12:06:40.012Z,77.21
2017-08-05T12:07:40.787Z,76.73
2017-08-05T12:08:40.010Z,76.82
2017-08-05T12:09:40.046Z,76.92
2017-08-05T12:10:39.968Z,76.73
2017-08-05T12:11:40.760Z,75.77
2017-08-05T12:12:40.741Z,76.92
2017-08-05T12:13:39.959Z,76.73
2017-08-05T12:14:40.024Z,78.08
2017-08-05T12:15:39.942Z,78.27
2017-08-05T12:16:39.928Z,77.50
2017-08-05T12:17:40.953Z,77.31
2017-08-05T12:18:40.386Z,77.59
2017-08-05T12:19:40.595Z,78.32
2017-08-05T12:20:40.691Z,78.08
2017-08-05T12:21:40.676Z,78.36
2017-08-05T12:22:40.345Z,78.61
2017-08-05T12:23:39.877Z,78.13
2017-08-05T12:24:40.676Z,78.90
2017-08-05T12:25:40.533Z,79.38
2017-08-05T12:26:39.869Z,77.94
2017-08-05T12:27:40.674Z,77.78
2017-08-05T12:28:40.992Z,78.36
2017-08-05T12:29:39.902Z,79.52
2017-08-05T12:30:39.825Z,77.40
2017-08-05T12:31:39.832Z,78.84
2017-08-05T12:32:40.083Z,79.32
2017-08-05T12:33:39.820Z,78.94
2017-08-05T12:34:39.822Z,79.13
2017-08-05T12:35:40.287Z,78.65
2017-08-05T12:36:39.989Z,78.84
2017-08-05T12:37:39.774Z,78.65
2017-08-05T12:38:39.930Z,78.45
2017-08-05T12:39:40.066Z,78.17
2017-08-05T12:40:40.075Z,77.98
2017-08-05T12:41:40.311Z,78.27
2017-08-05T12:42:39.749Z,77.92
2017-08-05T12:43:40.265Z,78.21
2017-08-05T12:44:39.736Z,78.98
2017-08-05T12:45:39.747Z,78.69
2017-08-05T12:46:40.662Z,78.59
2017-08-05T12:47:40.524Z,79.27
2017-08-05T12:48:39.773Z,78.30
2017-08-05T12:49:40.065Z,78.40
2017-08-05T12:50:40.298Z,77.44
2017-08-05T12:51:39.727Z,77.25
2017-08-05T12:52:40.107Z,77.15
2017-08-05T12:53:39.744Z,76.77
2017-08-05T12:54:39.791Z,77.06
2017-08-05T12:55:39.835Z,78.11
2017-08-05T12:56:39.850Z,77.53
2017-08-05T12:57:40.080Z,77.73
2017-08-05T12:58:40.148Z,77.15
2017-08-05T12:59:39.656Z,78.78
2017-08-05T13:00:40.241Z,78.11
2017-08-05T13:01:39.708Z,76.96
2017-08-05T13:02:39.607Z,78.50
2017-08-05T13:03:40.359Z,77.63
2017-08-05T13:04:40.622Z,76.77
2017-08-05T13:05:39.597Z,78.11
2017-08-05T13:06:39.579Z,75.23
2017-08-05T13:07:39.665Z,75.71
2017-08-05T13:08:39.624Z,76.57
2017-08-05T13:09:39.982Z,76.77